Triumph — WDC9555 — position and weather

sailwx.info

Track history (hours):
 
Tides and Currents Weather Stations Pressure Air Temp Water Temp Dewpoint Dewpoint Depression Visibility Wind Speed Wind Dir Waves Ship Positions

Triumph

Owner: WESTERN TOWBOAT CO, SEATTLE, WA. More information available from US FCC via Universal Licensing System and Coast Guard Vessel Documentation Center.

Last reported at 2018-Feb-23 18:37 UTC. Time now 2018-Feb-24 20:04 UTC.
Position N 47°34' W 122°21'.

Length 24 m; draft 4 m.

Type: Tow > 200 m length. MMSI: 367103880.

Date/timePositionNaut miles runAvg speedWind from/ knotsBaromVisibWave heightAir tempDewpointWater temp
2018-Feb-23 18:37N 47°34' W 122°21'0 3.0
2018-Feb-23 18:30N 47°34' W 122°21'2 3.3
2018-Feb-23 18:00N 47°36' W 122°23'3 5.4
2018-Feb-23 17:30N 47°38' W 122°25'3 6.6
2018-Feb-23 17:00N 47°40' W 122°28'4 7.1
2018-Feb-23 16:30N 47°44' W 122°28'3 6.8
2018-Feb-23 16:00N 47°47' W 122°27'3 6.6
2018-Feb-23 15:30N 47°51' W 122°29'3 6.5
2018-Feb-23 15:00N 47°54' W 122°30'4 7.1
2018-Feb-23 14:30N 47°56' W 122°33'16 6.8
2018-Feb-23 12:06N 48°10' W 122°46'8 6.4
2018-Feb-23 10:51N 48°18' W 122°47'3 7.6
2018-Feb-23 10:28N 48°21' W 122°46'3 7.4
2018-Feb-23 10:00N 48°24' W 122°45'4 7.3
2018-Feb-23 09:30N 48°28' W 122°44'4 7.4
2018-Feb-23 09:00N 48°32' W 122°45'4 7.1
2018-Feb-23 08:30N 48°35' W 122°45'3 6.7
2018-Feb-23 08:00N 48°38' W 122°44'3 6.6
2018-Feb-23 07:30N 48°42' W 122°44'3 6.2
2018-Feb-23 07:00N 48°44' W 122°47'6 7.4
2018-Feb-23 06:10N 48°48' W 122°55'1 6.7
2018-Feb-23 06:00N 48°48' W 122°56'5 6.7
2018-Feb-23 05:14N 48°51' W 123°02'2 7.0
2018-Feb-23 04:56N 48°53' W 123°05'3 7.3
2018-Feb-23 04:29N 48°55' W 123°08'4 6.8
2018-Feb-23 03:57N 48°57' W 123°13'3 7.0
2018-Feb-23 03:28N 48°59' W 123°17'3 7.3
2018-Feb-23 03:00N 49°02' W 123°20'4 7.1
2018-Feb-23 02:27N 49°05' W 123°25'3 6.6
2018-Feb-23 02:00N 49°07' W 123°27'13 7.3
2018-Feb-23 00:17N 49°18' W 123°37'3 7.7
2018-Feb-22 23:55N 49°20' W 123°39'5 0.9
2018-Feb-22 18:56N 49°24' W 123°43'2 4.4
2018-Feb-22 18:27N 49°22' W 123°41'2 4.8
2018-Feb-22 18:00N 49°21' W 123°39'3 6.5
2018-Feb-22 17:30N 49°18' W 123°36'4 8.1
2018-Feb-22 17:00N 49°15' W 123°32'4 8.1
2018-Feb-22 16:29N 49°11' W 123°28'4 7.9
2018-Feb-22 15:59N 49°08' W 123°25'4 7.8
2018-Feb-22 15:29N 49°05' W 123°22'4 8.0
2018-Feb-22 14:56N 49°02' W 123°17'4 8.1
2018-Feb-22 14:26N 48°59' W 123°12'4 8.2
2018-Feb-22 14:00N 48°57' W 123°08'5 8.0
2018-Feb-22 13:24N 48°56' W 123°01'3 8.0
2018-Feb-22 12:58N 48°55' W 122°56'8 7.5
2018-Feb-22 11:51N 48°49' W 122°46'3 7.6
2018-Feb-22 11:29N 48°47' W 122°46'4 7.3
2018-Feb-22 11:00N 48°43' W 122°44'3 6.8
2018-Feb-22 10:30N 48°40' W 122°43'3 6.2
2018-Feb-22 10:00N 48°37' W 122°45'3 6.1
2018-Feb-22 09:30N 48°34' W 122°45'3 6.3
2018-Feb-22 09:00N 48°31' W 122°44'3 6.6
2018-Feb-22 08:30N 48°28' W 122°44'28 7.0
2018-Feb-22 04:29N 48°00' W 122°36'3 7.2
2018-Feb-22 04:00N 47°57' W 122°33'4 7.2
2018-Feb-22 03:30N 47°55' W 122°28'4 7.3
2018-Feb-22 03:00N 47°52' W 122°27'4 7.7
2018-Feb-22 02:30N 47°48' W 122°26'4 7.5
2018-Feb-22 02:00N 47°44' W 122°26'4 7.5
2018-Feb-22 01:30N 47°40' W 122°27'4 7.0
2018-Feb-22 01:00N 47°37' W 122°24'4 7.0
2018-Feb-22 00:30N 47°34' W 122°21'1 0.9
2018-Feb-21 23:57N 47°34' W 122°21'0 0.0
2018-Feb-21 23:30N 47°34' W 122°21'0 0.0
2018-Feb-21 23:00N 47°34' W 122°21'0 0.0
2018-Feb-21 22:30N 47°34' W 122°21'0 0.0
2018-Feb-21 21:56N 47°34' W 122°21'0 0.0
2018-Feb-21 21:29N 47°34' W 122°21'0 0.0
2018-Feb-21 20:59N 47°34' W 122°21'0 0.0
2018-Feb-21 20:30N 47°34' W 122°21'0 0.0
2018-Feb-21 19:59N 47°34' W 122°21'0 0.0
2018-Feb-21 19:30N 47°34' W 122°21'0 0.0
2018-Feb-21 18:58N 47°34' W 122°21'0 0.0
2018-Feb-21 18:30N 47°34' W 122°21'0 0.0
2018-Feb-21 17:58N 47°34' W 122°21'0 0.0
2018-Feb-21 17:30N 47°34' W 122°21'0 0.0
2018-Feb-21 17:00N 47°34' W 122°21'0 0.0
2018-Feb-21 16:30N 47°34' W 122°21'0 0.0
2018-Feb-21 16:00N 47°34' W 122°21'0 0.0
2018-Feb-21 15:30N 47°34' W 122°21'0 0.0
2018-Feb-21 15:00N 47°34' W 122°21'0 0.0
2018-Feb-21 14:29N 47°34' W 122°21'0 0.0
2018-Feb-21 14:00N 47°34' W 122°21'0 0.0
2018-Feb-21 13:30N 47°34' W 122°21'0 0.0
2018-Feb-21 13:00N 47°34' W 122°21'0 0.0
2018-Feb-21 12:30N 47°34' W 122°21'0 0.0
2018-Feb-21 12:00N 47°34' W 122°21'0 0.0
2018-Feb-21 11:30N 47°34' W 122°21'0 0.0
2018-Feb-21 11:00N 47°34' W 122°21'3 6.4
2018-Feb-21 10:30N 47°37' W 122°24'5 9.6
2018-Feb-21 10:00N 47°40' W 122°28'510.7
2018-Feb-21 09:30N 47°45' W 122°27'510.6
2018-Feb-21 09:00N 47°51' W 122°29'510.2
2018-Feb-21 08:29N 47°56' W 122°31'25 8.6
2018-Feb-21 05:35N 48°18' W 122°47'111.7
2018-Feb-21 05:30N 48°19' W 122°47'611.3
2018-Feb-21 05:00N 48°25' W 122°45'510.9
2018-Feb-21 04:30N 48°30' W 122°45'510.3
2018-Feb-21 04:00N 48°35' W 122°45'510.0
2018-Feb-21 03:30N 48°40' W 122°44'5 9.6
2018-Feb-21 02:59N 48°45' W 122°47'510.3
2018-Feb-21 02:29N 48°48' W 122°54'611.0
2018-Feb-21 01:58N 48°52' W 122°59'611.5
2018-Feb-21 01:29N 48°56' W 123°05'911.0
2018-Feb-21 00:39N 49°02' W 123°15'210.6
2018-Feb-21 00:30N 49°03' W 123°17'4 8.5
2018-Feb-20 23:59N 49°07' W 123°15'613.0
2018-Feb-20 23:30N 49°07' W 123°06'3 6.4
2018-Feb-20 23:00N 49°09' W 123°02'0 0.0
2018-Feb-20 22:30N 49°09' W 123°02'0 0.0
2018-Feb-20 22:00N 49°09' W 123°02'0 0.0
2018-Feb-20 21:29N 49°09' W 123°02'0 0.0
2018-Feb-20 21:00N 49°09' W 123°02'0 0.0
2018-Feb-20 20:30N 49°09' W 123°02'0 0.0
2018-Feb-20 20:00N 49°09' W 123°02'0 0.8
2018-Feb-20 19:30N 49°09' W 123°02'2 4.2
2018-Feb-20 19:00N 49°07' W 123°05'3 5.7
2018-Feb-20 18:25N 49°07' W 123°10'3 6.1
2018-Feb-20 17:58N 49°08' W 123°13'3 5.9
2018-Feb-20 17:30N 49°07' W 123°17'2 4.5
2018-Feb-20 16:58N 49°05' W 123°19'5 6.6
2018-Feb-20 16:15N 49°01' W 123°14'2 6.4
2018-Feb-20 15:59N 48°60' W 123°12'3 6.7
2018-Feb-20 15:30N 48°58' W 123°09'12 7.5
2018-Feb-20 13:55N 48°50' W 122°55'7 7.9
2018-Feb-20 13:03N 48°45' W 122°47'0 8.5
2018-Feb-20 13:00N 48°45' W 122°47'4 7.8
2018-Feb-20 12:30N 48°42' W 122°44'4 7.8
2018-Feb-20 12:00N 48°38' W 122°44'4 7.8
2018-Feb-20 11:30N 48°34' W 122°45'4 7.5
2018-Feb-20 11:01N 48°31' W 122°44'4 7.0
2018-Feb-20 10:30N 48°27' W 122°44'12 6.1
2018-Feb-20 08:29N 48°15' W 122°47'17 8.6
2018-Feb-20 06:32N 48°00' W 122°36'2 9.3
2018-Feb-20 06:20N 47°59' W 122°35'3 8.9
2018-Feb-20 05:59N 47°57' W 122°31'4 7.9
2018-Feb-20 05:30N 47°53' W 122°28'4 7.5
2018-Feb-20 05:00N 47°50' W 122°27'3 6.6
2018-Feb-20 04:30N 47°46' W 122°26'3 6.3
2018-Feb-20 04:00N 47°43' W 122°26'3 6.2
2018-Feb-20 03:30N 47°40' W 122°27'3 5.6
2018-Feb-20 03:00N 47°37' W 122°27'3 5.7
2018-Feb-20 02:30N 47°35' W 122°26'3 5.5
2018-Feb-20 02:00N 47°32' W 122°25'3 5.7
2018-Feb-20 01:30N 47°29' W 122°24'3 5.8
2018-Feb-20 01:00N 47°26' W 122°23'3 6.0
2018-Feb-20 00:30N 47°24' W 122°21'3 5.4
2018-Feb-20 00:00N 47°21' W 122°23'3 6.2
2018-Feb-19 23:30N 47°19' W 122°26'2 1.7
2018-Feb-19 22:11N 47°17' W 122°25'2 9.7
2018-Feb-19 22:00N 47°18' W 122°27'5 9.9
2018-Feb-19 21:31N 47°22' W 122°23'5 9.8
2018-Feb-19 21:00N 47°27' W 122°23'511.1
2018-Feb-19 20:30N 47°33' W 122°25'3 6.6
2018-Feb-19 20:00N 47°35' W 122°22'1 0.0
2018-Feb-17 21:55N 47°34' W 122°21'1 3.5
2018-Feb-17 21:30N 47°35' W 122°22'0 0.1
2018-Feb-17 21:00N 47°35' W 122°22'5 9.3
2018-Feb-17 20:30N 47°39' W 122°27'5 9.3
2018-Feb-17 20:00N 47°43' W 122°27'510.1
2018-Feb-17 19:30N 47°48' W 122°28'510.5
2018-Feb-17 19:00N 47°54' W 122°30'4 9.0
2018-Feb-17 18:30N 47°57' W 122°34'25 8.5
2018-Feb-17 15:32N 48°21' W 122°46'011.6
2018-Feb-17 15:30N 48°21' W 122°46'510.7
2018-Feb-17 15:00N 48°27' W 122°45'510.1
2018-Feb-17 14:30N 48°31' W 122°41'3 5.2
2018-Feb-17 14:00N 48°31' W 122°37'1 1.2
2018-Feb-17 13:30N 48°31' W 122°38'2 4.5
2018-Feb-17 13:00N 48°31' W 122°41'2 3.4
2018-Feb-17 12:30N 48°31' W 122°43'2 4.0
2018-Feb-17 12:00N 48°30' W 122°46'2 4.5
2018-Feb-17 11:30N 48°28' W 122°45'3 5.1
2018-Feb-17 11:00N 48°26' W 122°44'28 5.9
2018-Feb-17 06:20N 47°59' W 122°35'3 8.7
2018-Feb-17 06:00N 47°57' W 122°31'4 8.1
2018-Feb-17 05:30N 47°53' W 122°28'5 9.1
2018-Feb-17 05:00N 47°49' W 122°26'5 9.1
2018-Feb-17 04:30N 47°44' W 122°26'5 9.3
2018-Feb-17 04:00N 47°40' W 122°27'4 8.4
2018-Feb-17 03:30N 47°37' W 122°23'3 5.3
2018-Feb-17 03:00N 47°34' W 122°21'0 0.3
2018-Feb-17 01:43N 47°34' W 122°21'0 0.0
2018-Feb-16 23:58N 47°34' W 122°21'  
2018-Feb-14 04:35N 47°34' W 122°21'1 6.6
2018-Feb-14 04:30N 47°34' W 122°21'1 2.7
2018-Feb-14 04:00N 47°36' W 122°23'3 5.7
2018-Feb-14 03:31N 47°38' W 122°25'4 7.5
2018-Feb-14 03:01N 47°41' W 122°28'4 8.5
2018-Feb-14 02:31N 47°45' W 122°27'4 8.2
2018-Feb-14 02:00N 47°49' W 122°28'4 8.2
2018-Feb-14 01:31N 47°53' W 122°30'4 7.6
2018-Feb-14 01:00N 47°57' W 122°33'24 7.8
2018-Feb-13 21:54N 48°19' W 122°45'4 9.2
2018-Feb-13 21:30N 48°22' W 122°43'4 8.7
2018-Feb-13 21:00N 48°27' W 122°43'4 8.5
2018-Feb-13 20:30N 48°31' W 122°42'4 8.8
2018-Feb-13 20:00N 48°35' W 122°40'4 8.5
2018-Feb-13 19:31N 48°38' W 122°35'4 8.8
2018-Feb-13 19:01N 48°42' W 122°32'  
Track history (hours):
 
Tides and Currents Weather Stations Pressure Air Temp Water Temp Dewpoint Dewpoint Depression Visibility Wind Speed Wind Dir Waves Ship Positions

Triumph

Owner: WESTERN TOWBOAT CO, SEATTLE, WA. More information available from US FCC via Universal Licensing System and Coast Guard Vessel Documentation Center.

Last reported at 2018-Feb-23 18:37 UTC. Time now 2018-Feb-24 20:04 UTC.
Position N 47°34' W 122°21'.

Length 24 m; draft 4 m.

Type: Tow > 200 m length. MMSI: 367103880.

Date/timePositionNaut miles runAvg speedWind from/ knotsBaromVisibWave heightAir tempDewpointWater temp
2018-Feb-23 18:37N 47°34' W 122°21'0 3.0
2018-Feb-23 18:30N 47°34' W 122°21'2 3.3
2018-Feb-23 18:00N 47°36' W 122°23'3 5.4
2018-Feb-23 17:30N 47°38' W 122°25'3 6.6
2018-Feb-23 17:00N 47°40' W 122°28'4 7.1
2018-Feb-23 16:30N 47°44' W 122°28'3 6.8
2018-Feb-23 16:00N 47°47' W 122°27'3 6.6
2018-Feb-23 15:30N 47°51' W 122°29'3 6.5
2018-Feb-23 15:00N 47°54' W 122°30'4 7.1
2018-Feb-23 14:30N 47°56' W 122°33'16 6.8
2018-Feb-23 12:06N 48°10' W 122°46'8 6.4
2018-Feb-23 10:51N 48°18' W 122°47'3 7.6
2018-Feb-23 10:28N 48°21' W 122°46'3 7.4
2018-Feb-23 10:00N 48°24' W 122°45'4 7.3
2018-Feb-23 09:30N 48°28' W 122°44'4 7.4
2018-Feb-23 09:00N 48°32' W 122°45'4 7.1
2018-Feb-23 08:30N 48°35' W 122°45'3 6.7
2018-Feb-23 08:00N 48°38' W 122°44'3 6.6
2018-Feb-23 07:30N 48°42' W 122°44'3 6.2
2018-Feb-23 07:00N 48°44' W 122°47'6 7.4
2018-Feb-23 06:10N 48°48' W 122°55'1 6.7
2018-Feb-23 06:00N 48°48' W 122°56'5 6.7
2018-Feb-23 05:14N 48°51' W 123°02'2 7.0
2018-Feb-23 04:56N 48°53' W 123°05'3 7.3
2018-Feb-23 04:29N 48°55' W 123°08'4 6.8
2018-Feb-23 03:57N 48°57' W 123°13'3 7.0
2018-Feb-23 03:28N 48°59' W 123°17'3 7.3
2018-Feb-23 03:00N 49°02' W 123°20'4 7.1
2018-Feb-23 02:27N 49°05' W 123°25'3 6.6
2018-Feb-23 02:00N 49°07' W 123°27'13 7.3
2018-Feb-23 00:17N 49°18' W 123°37'3 7.7
2018-Feb-22 23:55N 49°20' W 123°39'5 0.9
2018-Feb-22 18:56N 49°24' W 123°43'2 4.4
2018-Feb-22 18:27N 49°22' W 123°41'2 4.8
2018-Feb-22 18:00N 49°21' W 123°39'3 6.5
2018-Feb-22 17:30N 49°18' W 123°36'4 8.1
2018-Feb-22 17:00N 49°15' W 123°32'4 8.1
2018-Feb-22 16:29N 49°11' W 123°28'4 7.9
2018-Feb-22 15:59N 49°08' W 123°25'4 7.8
2018-Feb-22 15:29N 49°05' W 123°22'4 8.0
2018-Feb-22 14:56N 49°02' W 123°17'4 8.1
2018-Feb-22 14:26N 48°59' W 123°12'4 8.2
2018-Feb-22 14:00N 48°57' W 123°08'5 8.0
2018-Feb-22 13:24N 48°56' W 123°01'3 8.0
2018-Feb-22 12:58N 48°55' W 122°56'8 7.5
2018-Feb-22 11:51N 48°49' W 122°46'3 7.6
2018-Feb-22 11:29N 48°47' W 122°46'4 7.3
2018-Feb-22 11:00N 48°43' W 122°44'3 6.8
2018-Feb-22 10:30N 48°40' W 122°43'3 6.2
2018-Feb-22 10:00N 48°37' W 122°45'3 6.1
2018-Feb-22 09:30N 48°34' W 122°45'3 6.3
2018-Feb-22 09:00N 48°31' W 122°44'3 6.6
2018-Feb-22 08:30N 48°28' W 122°44'28 7.0
2018-Feb-22 04:29N 48°00' W 122°36'3 7.2
2018-Feb-22 04:00N 47°57' W 122°33'4 7.2
2018-Feb-22 03:30N 47°55' W 122°28'4 7.3
2018-Feb-22 03:00N 47°52' W 122°27'4 7.7
2018-Feb-22 02:30N 47°48' W 122°26'4 7.5
2018-Feb-22 02:00N 47°44' W 122°26'4 7.5
2018-Feb-22 01:30N 47°40' W 122°27'4 7.0
2018-Feb-22 01:00N 47°37' W 122°24'4 7.0
2018-Feb-22 00:30N 47°34' W 122°21'1 0.9
2018-Feb-21 23:57N 47°34' W 122°21'0 0.0
2018-Feb-21 23:30N 47°34' W 122°21'0 0.0
2018-Feb-21 23:00N 47°34' W 122°21'0 0.0
2018-Feb-21 22:30N 47°34' W 122°21'0 0.0
2018-Feb-21 21:56N 47°34' W 122°21'0 0.0
2018-Feb-21 21:29N 47°34' W 122°21'0 0.0
2018-Feb-21 20:59N 47°34' W 122°21'0 0.0
2018-Feb-21 20:30N 47°34' W 122°21'0 0.0
2018-Feb-21 19:59N 47°34' W 122°21'0 0.0
2018-Feb-21 19:30N 47°34' W 122°21'0 0.0
2018-Feb-21 18:58N 47°34' W 122°21'0 0.0
2018-Feb-21 18:30N 47°34' W 122°21'0 0.0
2018-Feb-21 17:58N 47°34' W 122°21'0 0.0
2018-Feb-21 17:30N 47°34' W 122°21'0 0.0
2018-Feb-21 17:00N 47°34' W 122°21'0 0.0
2018-Feb-21 16:30N 47°34' W 122°21'0 0.0
2018-Feb-21 16:00N 47°34' W 122°21'0 0.0
2018-Feb-21 15:30N 47°34' W 122°21'0 0.0
2018-Feb-21 15:00N 47°34' W 122°21'0 0.0
2018-Feb-21 14:29N 47°34' W 122°21'0 0.0
2018-Feb-21 14:00N 47°34' W 122°21'0 0.0
2018-Feb-21 13:30N 47°34' W 122°21'0 0.0
2018-Feb-21 13:00N 47°34' W 122°21'0 0.0
2018-Feb-21 12:30N 47°34' W 122°21'0 0.0
2018-Feb-21 12:00N 47°34' W 122°21'0 0.0
2018-Feb-21 11:30N 47°34' W 122°21'0 0.0
2018-Feb-21 11:00N 47°34' W 122°21'3 6.4
2018-Feb-21 10:30N 47°37' W 122°24'5 9.6
2018-Feb-21 10:00N 47°40' W 122°28'510.7
2018-Feb-21 09:30N 47°45' W 122°27'510.6
2018-Feb-21 09:00N 47°51' W 122°29'510.2
2018-Feb-21 08:29N 47°56' W 122°31'25 8.6
2018-Feb-21 05:35N 48°18' W 122°47'111.7
2018-Feb-21 05:30N 48°19' W 122°47'611.3
2018-Feb-21 05:00N 48°25' W 122°45'510.9
2018-Feb-21 04:30N 48°30' W 122°45'510.3
2018-Feb-21 04:00N 48°35' W 122°45'510.0
2018-Feb-21 03:30N 48°40' W 122°44'5 9.6
2018-Feb-21 02:59N 48°45' W 122°47'510.3
2018-Feb-21 02:29N 48°48' W 122°54'611.0
2018-Feb-21 01:58N 48°52' W 122°59'611.5
2018-Feb-21 01:29N 48°56' W 123°05'911.0
2018-Feb-21 00:39N 49°02' W 123°15'210.6
2018-Feb-21 00:30N 49°03' W 123°17'4 8.5
2018-Feb-20 23:59N 49°07' W 123°15'613.0
2018-Feb-20 23:30N 49°07' W 123°06'3 6.4
2018-Feb-20 23:00N 49°09' W 123°02'0 0.0
2018-Feb-20 22:30N 49°09' W 123°02'0 0.0
2018-Feb-20 22:00N 49°09' W 123°02'0 0.0
2018-Feb-20 21:29N 49°09' W 123°02'0 0.0
2018-Feb-20 21:00N 49°09' W 123°02'0 0.0
2018-Feb-20 20:30N 49°09' W 123°02'0 0.0
2018-Feb-20 20:00N 49°09' W 123°02'0 0.8
2018-Feb-20 19:30N 49°09' W 123°02'2 4.2
2018-Feb-20 19:00N 49°07' W 123°05'3 5.7
2018-Feb-20 18:25N 49°07' W 123°10'3 6.1
2018-Feb-20 17:58N 49°08' W 123°13'3 5.9
2018-Feb-20 17:30N 49°07' W 123°17'2 4.5
2018-Feb-20 16:58N 49°05' W 123°19'5 6.6
2018-Feb-20 16:15N 49°01' W 123°14'2 6.4
2018-Feb-20 15:59N 48°60' W 123°12'3 6.7
2018-Feb-20 15:30N 48°58' W 123°09'12 7.5
2018-Feb-20 13:55N 48°50' W 122°55'7 7.9
2018-Feb-20 13:03N 48°45' W 122°47'0 8.5
2018-Feb-20 13:00N 48°45' W 122°47'4 7.8
2018-Feb-20 12:30N 48°42' W 122°44'4 7.8
2018-Feb-20 12:00N 48°38' W 122°44'4 7.8
2018-Feb-20 11:30N 48°34' W 122°45'4 7.5
2018-Feb-20 11:01N 48°31' W 122°44'4 7.0
2018-Feb-20 10:30N 48°27' W 122°44'12 6.1
2018-Feb-20 08:29N 48°15' W 122°47'17 8.6
2018-Feb-20 06:32N 48°00' W 122°36'2 9.3
2018-Feb-20 06:20N 47°59' W 122°35'3 8.9
2018-Feb-20 05:59N 47°57' W 122°31'4 7.9
2018-Feb-20 05:30N 47°53' W 122°28'4 7.5
2018-Feb-20 05:00N 47°50' W 122°27'3 6.6
2018-Feb-20 04:30N 47°46' W 122°26'3 6.3
2018-Feb-20 04:00N 47°43' W 122°26'3 6.2
2018-Feb-20 03:30N 47°40' W 122°27'3 5.6
2018-Feb-20 03:00N 47°37' W 122°27'3 5.7
2018-Feb-20 02:30N 47°35' W 122°26'3 5.5
2018-Feb-20 02:00N 47°32' W 122°25'3 5.7
2018-Feb-20 01:30N 47°29' W 122°24'3 5.8
2018-Feb-20 01:00N 47°26' W 122°23'3 6.0
2018-Feb-20 00:30N 47°24' W 122°21'3 5.4
2018-Feb-20 00:00N 47°21' W 122°23'3 6.2
2018-Feb-19 23:30N 47°19' W 122°26'2 1.7
2018-Feb-19 22:11N 47°17' W 122°25'2 9.7
2018-Feb-19 22:00N 47°18' W 122°27'5 9.9
2018-Feb-19 21:31N 47°22' W 122°23'5 9.8
2018-Feb-19 21:00N 47°27' W 122°23'511.1
2018-Feb-19 20:30N 47°33' W 122°25'3 6.6
2018-Feb-19 20:00N 47°35' W 122°22'1 0.0
2018-Feb-17 21:55N 47°34' W 122°21'1 3.5
2018-Feb-17 21:30N 47°35' W 122°22'0 0.1
2018-Feb-17 21:00N 47°35' W 122°22'5 9.3
2018-Feb-17 20:30N 47°39' W 122°27'5 9.3
2018-Feb-17 20:00N 47°43' W 122°27'510.1
2018-Feb-17 19:30N 47°48' W 122°28'510.5
2018-Feb-17 19:00N 47°54' W 122°30'4 9.0
2018-Feb-17 18:30N 47°57' W 122°34'25 8.5
2018-Feb-17 15:32N 48°21' W 122°46'011.6
2018-Feb-17 15:30N 48°21' W 122°46'510.7
2018-Feb-17 15:00N 48°27' W 122°45'510.1
2018-Feb-17 14:30N 48°31' W 122°41'3 5.2
2018-Feb-17 14:00N 48°31' W 122°37'1 1.2
2018-Feb-17 13:30N 48°31' W 122°38'2 4.5
2018-Feb-17 13:00N 48°31' W 122°41'2 3.4
2018-Feb-17 12:30N 48°31' W 122°43'2 4.0
2018-Feb-17 12:00N 48°30' W 122°46'2 4.5
2018-Feb-17 11:30N 48°28' W 122°45'3 5.1
2018-Feb-17 11:00N 48°26' W 122°44'28 5.9
2018-Feb-17 06:20N 47°59' W 122°35'3 8.7
2018-Feb-17 06:00N 47°57' W 122°31'4 8.1
2018-Feb-17 05:30N 47°53' W 122°28'5 9.1
2018-Feb-17 05:00N 47°49' W 122°26'5 9.1
2018-Feb-17 04:30N 47°44' W 122°26'5 9.3
2018-Feb-17 04:00N 47°40' W 122°27'4 8.4
2018-Feb-17 03:30N 47°37' W 122°23'3 5.3
2018-Feb-17 03:00N 47°34' W 122°21'0 0.3
2018-Feb-17 01:43N 47°34' W 122°21'0 0.0
2018-Feb-16 23:58N 47°34' W 122°21'  
2018-Feb-14 04:35N 47°34' W 122°21'1 6.6
2018-Feb-14 04:30N 47°34' W 122°21'1 2.7
2018-Feb-14 04:00N 47°36' W 122°23'3 5.7
2018-Feb-14 03:31N 47°38' W 122°25'4 7.5
2018-Feb-14 03:01N 47°41' W 122°28'4 8.5
2018-Feb-14 02:31N 47°45' W 122°27'4 8.2
2018-Feb-14 02:00N 47°49' W 122°28'4 8.2
2018-Feb-14 01:31N 47°53' W 122°30'4 7.6
2018-Feb-14 01:00N 47°57' W 122°33'24 7.8
2018-Feb-13 21:54N 48°19' W 122°45'4 9.2
2018-Feb-13 21:30N 48°22' W 122°43'4 8.7
2018-Feb-13 21:00N 48°27' W 122°43'4 8.5
2018-Feb-13 20:30N 48°31' W 122°42'4 8.8
2018-Feb-13 20:00N 48°35' W 122°40'4 8.5
2018-Feb-13 19:31N 48°38' W 122°35'4 8.8
2018-Feb-13 19:01N 48°42' W 122°32'  

Dump ship's entire track history